sensor_id;sensor_type;location;lat;lon;timestamp;P1;durP1;ratioP1;P2;durP2;ratioP2
78778;SDS011;68121;52.404;5.318;2023-04-30T00:01:44;12.45;;;5.72;;
78778;SDS011;68121;52.404;5.318;2023-04-30T00:04:10;11.45;;;5.57;;
78778;SDS011;68121;52.404;5.318;2023-04-30T00:06:36;10.32;;;5.93;;
78778;SDS011;68121;52.404;5.318;2023-04-30T00:09:04;13.23;;;6.10;;
78778;SDS011;68121;52.404;5.318;2023-04-30T00:11:30;15.20;;;6.30;;
78778;SDS011;68121;52.404;5.318;2023-04-30T00:13:56;17.08;;;6.22;;
78778;SDS011;68121;52.404;5.318;2023-04-30T00:16:22;11.65;;;6.47;;
78778;SDS011;68121;52.404;5.318;2023-04-30T00:18:48;13.75;;;6.03;;
78778;SDS011;68121;52.404;5.318;2023-04-30T00:21:14;13.68;;;6.60;;
78778;SDS011;68121;52.404;5.318;2023-04-30T00:23:41;13.65;;;7.40;;
78778;SDS011;68121;52.404;5.318;2023-04-30T00:26:07;15.48;;;6.68;;
78778;SDS011;68121;52.404;5.318;2023-04-30T00:28:33;13.90;;;6.72;;
78778;SDS011;68121;52.404;5.318;2023-04-30T00:30:59;16.65;;;6.28;;
78778;SDS011;68121;52.404;5.318;2023-04-30T00:33:25;10.60;;;6.03;;
78778;SDS011;68121;52.404;5.318;2023-04-30T00:35:51;12.88;;;6.32;;
78778;SDS011;68121;52.404;5.318;2023-04-30T00:38:17;12.65;;;6.22;;
78778;SDS011;68121;52.404;5.318;2023-04-30T00:40:43;13.32;;;7.07;;
78778;SDS011;68121;52.404;5.318;2023-04-30T00:43:09;11.43;;;5.95;;
78778;SDS011;68121;52.404;5.318;2023-04-30T00:45:35;12.32;;;5.95;;
78778;SDS011;68121;52.404;5.318;2023-04-30T00:48:01;13.63;;;6.18;;
78778;SDS011;68121;52.404;5.318;2023-04-30T00:50:27;9.85;;;5.60;;
78778;SDS011;68121;52.404;5.318;2023-04-30T00:52:54;13.35;;;5.90;;
78778;SDS011;68121;52.404;5.318;2023-04-30T00:55:20;11.25;;;5.50;;
78778;SDS011;68121;52.404;5.318;2023-04-30T00:57:46;11.30;;;5.93;;
78778;SDS011;68121;52.404;5.318;2023-04-30T01:00:13;10.70;;;5.05;;
78778;SDS011;68121;52.404;5.318;2023-04-30T01:02:39;14.95;;;6.70;;
78778;SDS011;68121;52.404;5.318;2023-04-30T01:05:06;12.55;;;5.85;;
78778;SDS011;68121;52.404;5.318;2023-04-30T01:07:33;13.38;;;6.30;;
78778;SDS011;68121;52.404;5.318;2023-04-30T01:10:00;13.07;;;6.30;;
78778;SDS011;68121;52.404;5.318;2023-04-30T01:12:38;10.40;;;6.03;;
78778;SDS011;68121;52.404;5.318;2023-04-30T01:15:20;9.77;;;6.25;;
78778;SDS011;68121;52.404;5.318;2023-04-30T01:18:06;9.25;;;5.28;;
78778;SDS011;68121;52.404;5.318;2023-04-30T01:20:38;13.27;;;5.15;;
78778;SDS011;68121;52.404;5.318;2023-04-30T01:23:26;13.18;;;5.88;;
78778;SDS011;68121;52.404;5.318;2023-04-30T01:26:28;7.60;;;4.88;;
78778;SDS011;68121;52.404;5.318;2023-04-30T01:28:57;8.43;;;4.63;;
78778;SDS011;68121;52.404;5.318;2023-04-30T01:31:27;8.48;;;5.18;;
78778;SDS011;68121;52.404;5.318;2023-04-30T01:33:53;9.90;;;4.78;;
78778;SDS011;68121;52.404;5.318;2023-04-30T01:39:19;8.48;;;4.93;;
78778;SDS011;68121;52.404;5.318;2023-04-30T01:53:30;10.55;;;5.47;;
78778;SDS011;68121;52.404;5.318;2023-04-30T01:56:20;13.13;;;5.13;;
78778;SDS011;68121;52.404;5.318;2023-04-30T01:58:52;11.18;;;5.60;;
78778;SDS011;68121;52.404;5.318;2023-04-30T02:01:29;9.75;;;5.85;;
78778;SDS011;68121;52.404;5.318;2023-04-30T02:03:56;10.93;;;5.55;;
78778;SDS011;68121;52.404;5.318;2023-04-30T02:06:23;10.18;;;5.18;;
78778;SDS011;68121;52.404;5.318;2023-04-30T02:08:54;9.75;;;5.53;;
78778;SDS011;68121;52.404;5.318;2023-04-30T02:11:23;11.00;;;5.97;;
78778;SDS011;68121;52.404;5.318;2023-04-30T02:13:50;9.52;;;4.95;;
78778;SDS011;68121;52.404;5.318;2023-04-30T02:16:16;8.77;;;4.90;;
78778;SDS011;68121;52.404;5.318;2023-04-30T02:18:42;7.35;;;4.72;;
78778;SDS011;68121;52.404;5.318;2023-04-30T02:21:08;11.68;;;5.05;;
78778;SDS011;68121;52.404;5.318;2023-04-30T02:23:34;8.50;;;4.20;;
78778;SDS011;68121;52.404;5.318;2023-04-30T02:26:00;9.88;;;4.85;;
78778;SDS011;68121;52.404;5.318;2023-04-30T02:28:27;10.98;;;5.00;;
78778;SDS011;68121;52.404;5.318;2023-04-30T02:30:53;9.05;;;5.15;;
78778;SDS011;68121;52.404;5.318;2023-04-30T02:33:19;7.88;;;4.05;;
78778;SDS011;68121;52.404;5.318;2023-04-30T02:35:45;7.80;;;4.78;;
78778;SDS011;68121;52.404;5.318;2023-04-30T02:38:11;7.70;;;4.30;;
78778;SDS011;68121;52.404;5.318;2023-04-30T02:40:37;8.30;;;4.50;;
78778;SDS011;68121;52.404;5.318;2023-04-30T02:43:05;9.13;;;4.60;;
78778;SDS011;68121;52.404;5.318;2023-04-30T02:45:31;9.07;;;4.93;;
78778;SDS011;68121;52.404;5.318;2023-04-30T02:47:58;8.73;;;5.20;;
78778;SDS011;68121;52.404;5.318;2023-04-30T02:50:24;8.00;;;4.40;;
78778;SDS011;68121;52.404;5.318;2023-04-30T02:52:50;7.68;;;4.18;;
78778;SDS011;68121;52.404;5.318;2023-04-30T02:55:16;8.15;;;4.18;;
78778;SDS011;68121;52.404;5.318;2023-04-30T02:57:42;8.80;;;4.53;;
78778;SDS011;68121;52.404;5.318;2023-04-30T03:00:08;8.88;;;4.53;;
78778;SDS011;68121;52.404;5.318;2023-04-30T03:02:34;10.85;;;5.13;;
78778;SDS011;68121;52.404;5.318;2023-04-30T03:05:01;10.10;;;5.05;;
78778;SDS011;68121;52.404;5.318;2023-04-30T03:07:27;6.53;;;4.32;;
78778;SDS011;68121;52.404;5.318;2023-04-30T03:09:53;8.60;;;5.10;;
78778;SDS011;68121;52.404;5.318;2023-04-30T03:12:19;8.93;;;4.75;;
78778;SDS011;68121;52.404;5.318;2023-04-30T03:14:45;7.97;;;5.07;;
78778;SDS011;68121;52.404;5.318;2023-04-30T03:17:11;10.80;;;4.50;;
78778;SDS011;68121;52.404;5.318;2023-04-30T03:19:37;8.45;;;4.50;;
78778;SDS011;68121;52.404;5.318;2023-04-30T03:22:03;7.15;;;4.18;;
78778;SDS011;68121;52.404;5.318;2023-04-30T03:24:29;7.18;;;4.32;;
78778;SDS011;68121;52.404;5.318;2023-04-30T03:26:55;11.38;;;4.60;;
78778;SDS011;68121;52.404;5.318;2023-04-30T03:29:21;7.68;;;4.30;;
78778;SDS011;68121;52.404;5.318;2023-04-30T03:31:47;7.60;;;4.82;;
78778;SDS011;68121;52.404;5.318;2023-04-30T03:34:14;8.38;;;4.50;;
78778;SDS011;68121;52.404;5.318;2023-04-30T03:36:40;9.15;;;4.45;;
78778;SDS011;68121;52.404;5.318;2023-04-30T03:39:06;8.23;;;4.50;;
78778;SDS011;68121;52.404;5.318;2023-04-30T03:41:34;10.80;;;5.03;;
78778;SDS011;68121;52.404;5.318;2023-04-30T03:44:00;9.40;;;4.53;;
78778;SDS011;68121;52.404;5.318;2023-04-30T03:46:26;8.35;;;5.10;;
78778;SDS011;68121;52.404;5.318;2023-04-30T03:48:52;10.32;;;5.07;;
78778;SDS011;68121;52.404;5.318;2023-04-30T03:51:19;9.48;;;4.72;;
78778;SDS011;68121;52.404;5.318;2023-04-30T03:53:46;10.73;;;5.05;;
78778;SDS011;68121;52.404;5.318;2023-04-30T03:56:12;10.23;;;4.95;;
78778;SDS011;68121;52.404;5.318;2023-04-30T03:58:38;9.07;;;4.88;;
78778;SDS011;68121;52.404;5.318;2023-04-30T04:01:05;8.77;;;4.78;;
78778;SDS011;68121;52.404;5.318;2023-04-30T04:03:32;10.20;;;5.03;;
78778;SDS011;68121;52.404;5.318;2023-04-30T04:05:59;10.55;;;5.20;;
78778;SDS011;68121;52.404;5.318;2023-04-30T04:08:25;8.30;;;5.15;;
78778;SDS011;68121;52.404;5.318;2023-04-30T04:10:51;8.80;;;4.95;;
78778;SDS011;68121;52.404;5.318;2023-04-30T04:13:17;9.07;;;4.68;;
78778;SDS011;68121;52.404;5.318;2023-04-30T04:15:43;11.88;;;5.20;;
78778;SDS011;68121;52.404;5.318;2023-04-30T04:18:09;10.48;;;4.85;;
78778;SDS011;68121;52.404;5.318;2023-04-30T04:20:35;11.82;;;5.68;;
78778;SDS011;68121;52.404;5.318;2023-04-30T04:23:01;10.60;;;4.97;;
78778;SDS011;68121;52.404;5.318;2023-04-30T04:25:28;9.05;;;5.07;;
78778;SDS011;68121;52.404;5.318;2023-04-30T04:27:54;9.35;;;5.55;;
78778;SDS011;68121;52.404;5.318;2023-04-30T04:30:20;10.90;;;5.60;;
78778;SDS011;68121;52.404;5.318;2023-04-30T04:32:46;12.45;;;6.32;;
78778;SDS011;68121;52.404;5.318;2023-04-30T04:35:15;11.85;;;6.18;;
78778;SDS011;68121;52.404;5.318;2023-04-30T04:37:42;10.40;;;5.70;;
78778;SDS011;68121;52.404;5.318;2023-04-30T04:40:09;11.40;;;5.10;;
78778;SDS011;68121;52.404;5.318;2023-04-30T04:42:36;9.95;;;6.45;;
78778;SDS011;68121;52.404;5.318;2023-04-30T04:45:04;11.50;;;5.78;;
78778;SDS011;68121;52.404;5.318;2023-04-30T04:47:32;10.68;;;6.10;;
78778;SDS011;68121;52.404;5.318;2023-04-30T04:49:58;12.43;;;6.18;;
78778;SDS011;68121;52.404;5.318;2023-04-30T04:52:25;10.45;;;5.72;;
78778;SDS011;68121;52.404;5.318;2023-04-30T04:54:51;12.63;;;5.57;;
78778;SDS011;68121;52.404;5.318;2023-04-30T04:57:17;11.32;;;6.20;;
78778;SDS011;68121;52.404;5.318;2023-04-30T04:59:43;9.98;;;6.05;;
78778;SDS011;68121;52.404;5.318;2023-04-30T05:02:09;11.15;;;6.10;;
78778;SDS011;68121;52.404;5.318;2023-04-30T05:04:35;12.38;;;6.05;;
78778;SDS011;68121;52.404;5.318;2023-04-30T05:07:02;9.95;;;6.25;;
78778;SDS011;68121;52.404;5.318;2023-04-30T05:09:28;10.30;;;5.80;;
78778;SDS011;68121;52.404;5.318;2023-04-30T05:11:54;11.52;;;6.55;;
78778;SDS011;68121;52.404;5.318;2023-04-30T05:14:20;13.45;;;5.95;;
78778;SDS011;68121;52.404;5.318;2023-04-30T05:16:46;11.30;;;6.70;;
78778;SDS011;68121;52.404;5.318;2023-04-30T05:19:12;11.50;;;6.22;;
78778;SDS011;68121;52.404;5.318;2023-04-30T05:21:38;12.60;;;6.43;;
78778;SDS011;68121;52.404;5.318;2023-04-30T05:24:04;9.82;;;5.38;;
78778;SDS011;68121;52.404;5.318;2023-04-30T05:26:30;13.02;;;5.57;;
78778;SDS011;68121;52.404;5.318;2023-04-30T05:28:56;9.95;;;4.60;;
78778;SDS011;68121;52.404;5.318;2023-04-30T05:31:22;9.27;;;5.57;;
78778;SDS011;68121;52.404;5.318;2023-04-30T05:33:48;7.93;;;4.82;;
78778;SDS011;68121;52.404;5.318;2023-04-30T05:36:14;10.65;;;5.30;;
78778;SDS011;68121;52.404;5.318;2023-04-30T05:38:40;8.77;;;5.20;;
78778;SDS011;68121;52.404;5.318;2023-04-30T05:41:08;9.68;;;5.57;;
78778;SDS011;68121;52.404;5.318;2023-04-30T05:43:35;10.35;;;5.05;;
78778;SDS011;68121;52.404;5.318;2023-04-30T05:46:01;9.90;;;5.35;;
78778;SDS011;68121;52.404;5.318;2023-04-30T05:48:28;9.55;;;5.55;;
78778;SDS011;68121;52.404;5.318;2023-04-30T05:50:55;11.18;;;5.80;;
78778;SDS011;68121;52.404;5.318;2023-04-30T05:53:21;9.45;;;5.40;;
78778;SDS011;68121;52.404;5.318;2023-04-30T05:55:47;8.48;;;5.13;;
78778;SDS011;68121;52.404;5.318;2023-04-30T05:58:13;8.65;;;5.28;;
78778;SDS011;68121;52.404;5.318;2023-04-30T06:00:39;9.15;;;6.20;;
78778;SDS011;68121;52.404;5.318;2023-04-30T06:03:06;10.10;;;5.35;;
78778;SDS011;68121;52.404;5.318;2023-04-30T06:05:32;9.93;;;5.72;;
78778;SDS011;68121;52.404;5.318;2023-04-30T06:07:58;7.43;;;4.80;;
78778;SDS011;68121;52.404;5.318;2023-04-30T06:10:24;9.52;;;2.83;;
78778;SDS011;68121;52.404;5.318;2023-04-30T06:12:51;8.85;;;4.85;;
78778;SDS011;68121;52.404;5.318;2023-04-30T06:15:17;8.77;;;4.70;;
78778;SDS011;68121;52.404;5.318;2023-04-30T06:17:43;6.75;;;4.22;;
78778;SDS011;68121;52.404;5.318;2023-04-30T06:20:09;9.00;;;4.28;;
78778;SDS011;68121;52.404;5.318;2023-04-30T06:22:36;11.20;;;4.90;;
78778;SDS011;68121;52.404;5.318;2023-04-30T06:25:02;8.35;;;4.22;;
78778;SDS011;68121;52.404;5.318;2023-04-30T06:27:28;10.25;;;4.07;;
78778;SDS011;68121;52.404;5.318;2023-04-30T06:29:56;6.25;;;4.03;;
78778;SDS011;68121;52.404;5.318;2023-04-30T06:32:23;8.10;;;4.07;;
78778;SDS011;68121;52.404;5.318;2023-04-30T06:34:49;10.40;;;3.90;;
78778;SDS011;68121;52.404;5.318;2023-04-30T06:37:15;7.93;;;4.38;;
78778;SDS011;68121;52.404;5.318;2023-04-30T06:39:41;6.80;;;3.65;;
78778;SDS011;68121;52.404;5.318;2023-04-30T06:42:07;7.47;;;3.88;;
78778;SDS011;68121;52.404;5.318;2023-04-30T06:44:33;9.35;;;4.15;;
78778;SDS011;68121;52.404;5.318;2023-04-30T06:46:59;7.38;;;3.75;;
78778;SDS011;68121;52.404;5.318;2023-04-30T06:49:25;6.57;;;3.88;;
78778;SDS011;68121;52.404;5.318;2023-04-30T06:51:51;8.32;;;4.38;;
78778;SDS011;68121;52.404;5.318;2023-04-30T06:54:17;10.70;;;4.03;;
78778;SDS011;68121;52.404;5.318;2023-04-30T06:56:43;6.07;;;3.03;;
78778;SDS011;68121;52.404;5.318;2023-04-30T06:59:09;6.07;;;3.58;;
78778;SDS011;68121;52.404;5.318;2023-04-30T07:01:35;5.80;;;3.63;;
78778;SDS011;68121;52.404;5.318;2023-04-30T07:04:01;7.55;;;4.10;;
78778;SDS011;68121;52.404;5.318;2023-04-30T07:06:27;7.40;;;3.70;;
78778;SDS011;68121;52.404;5.318;2023-04-30T07:08:53;5.68;;;3.00;;
78778;SDS011;68121;52.404;5.318;2023-04-30T07:11:19;7.50;;;3.58;;
78778;SDS011;68121;52.404;5.318;2023-04-30T07:13:45;8.82;;;3.38;;
78778;SDS011;68121;52.404;5.318;2023-04-30T07:16:11;6.85;;;3.60;;
78778;SDS011;68121;52.404;5.318;2023-04-30T07:18:38;8.95;;;3.63;;
78778;SDS011;68121;52.404;5.318;2023-04-30T07:21:05;7.25;;;3.38;;
78778;SDS011;68121;52.404;5.318;2023-04-30T07:23:32;6.32;;;3.58;;
78778;SDS011;68121;52.404;5.318;2023-04-30T07:25:59;5.22;;;2.80;;
78778;SDS011;68121;52.404;5.318;2023-04-30T07:28:25;5.82;;;3.00;;
78778;SDS011;68121;52.404;5.318;2023-04-30T07:30:51;7.13;;;3.35;;
78778;SDS011;68121;52.404;5.318;2023-04-30T07:33:17;4.78;;;3.00;;
78778;SDS011;68121;52.404;5.318;2023-04-30T07:35:43;7.20;;;3.60;;
78778;SDS011;68121;52.404;5.318;2023-04-30T07:38:09;6.53;;;3.30;;
78778;SDS011;68121;52.404;5.318;2023-04-30T07:40:36;8.27;;;3.42;;
78778;SDS011;68121;52.404;5.318;2023-04-30T07:43:02;7.88;;;3.17;;
78778;SDS011;68121;52.404;5.318;2023-04-30T07:45:29;6.78;;;3.35;;
78778;SDS011;68121;52.404;5.318;2023-04-30T07:47:56;8.43;;;2.78;;
78778;SDS011;68121;52.404;5.318;2023-04-30T07:50:22;6.25;;;3.13;;
78778;SDS011;68121;52.404;5.318;2023-04-30T07:52:48;6.03;;;2.70;;
78778;SDS011;68121;52.404;5.318;2023-04-30T07:55:15;3.60;;;2.63;;
78778;SDS011;68121;52.404;5.318;2023-04-30T07:57:41;5.70;;;2.60;;
78778;SDS011;68121;52.404;5.318;2023-04-30T08:00:07;4.93;;;3.00;;
78778;SDS011;68121;52.404;5.318;2023-04-30T08:02:33;3.58;;;2.30;;
78778;SDS011;68121;52.404;5.318;2023-04-30T08:05:01;5.05;;;2.22;;
78778;SDS011;68121;52.404;5.318;2023-04-30T08:07:28;4.82;;;1.98;;
78778;SDS011;68121;52.404;5.318;2023-04-30T08:09:54;5.60;;;2.20;;
78778;SDS011;68121;52.404;5.318;2023-04-30T08:12:20;4.38;;;2.08;;
78778;SDS011;68121;52.404;5.318;2023-04-30T08:14:46;3.00;;;1.80;;
78778;SDS011;68121;52.404;5.318;2023-04-30T08:17:12;6.07;;;1.88;;
78778;SDS011;68121;52.404;5.318;2023-04-30T08:19:38;3.38;;;1.90;;
78778;SDS011;68121;52.404;5.318;2023-04-30T08:22:04;4.15;;;2.30;;
78778;SDS011;68121;52.404;5.318;2023-04-30T08:24:30;4.05;;;1.98;;
78778;SDS011;68121;52.404;5.318;2023-04-30T08:26:56;6.78;;;2.17;;
78778;SDS011;68121;52.404;5.318;2023-04-30T08:29:23;4.53;;;1.80;;
78778;SDS011;68121;52.404;5.318;2023-04-30T08:31:49;8.40;;;1.90;;
78778;SDS011;68121;52.404;5.318;2023-04-30T08:34:15;2.58;;;1.58;;
78778;SDS011;68121;52.404;5.318;2023-04-30T08:36:41;3.70;;;1.88;;
78778;SDS011;68121;52.404;5.318;2023-04-30T08:39:07;5.85;;;2.25;;
78778;SDS011;68121;52.404;5.318;2023-04-30T08:41:33;7.18;;;2.15;;
78778;SDS011;68121;52.404;5.318;2023-04-30T08:44:01;5.97;;;1.88;;
78778;SDS011;68121;52.404;5.318;2023-04-30T08:46:30;3.22;;;1.60;;
78778;SDS011;68121;52.404;5.318;2023-04-30T08:48:57;4.47;;;1.85;;
78778;SDS011;68121;52.404;5.318;2023-04-30T08:51:24;2.28;;;1.85;;
78778;SDS011;68121;52.404;5.318;2023-04-30T08:53:50;2.50;;;1.50;;
78778;SDS011;68121;52.404;5.318;2023-04-30T08:56:19;4.38;;;1.60;;
78778;SDS011;68121;52.404;5.318;2023-04-30T08:58:45;4.15;;;1.50;;
78778;SDS011;68121;52.404;5.318;2023-04-30T09:01:12;8.15;;;2.08;;
78778;SDS011;68121;52.404;5.318;2023-04-30T09:03:38;2.65;;;1.38;;
78778;SDS011;68121;52.404;5.318;2023-04-30T09:06:04;4.68;;;1.63;;
78778;SDS011;68121;52.404;5.318;2023-04-30T09:08:40;3.63;;;1.40;;
78778;SDS011;68121;52.404;5.318;2023-04-30T09:11:25;3.65;;;1.20;;
78778;SDS011;68121;52.404;5.318;2023-04-30T09:13:59;2.88;;;1.63;;
78778;SDS011;68121;52.404;5.318;2023-04-30T09:16:26;5.18;;;1.70;;
78778;SDS011;68121;52.404;5.318;2023-04-30T09:18:57;4.03;;;1.90;;
78778;SDS011;68121;52.404;5.318;2023-04-30T09:21:30;4.22;;;1.60;;
78778;SDS011;68121;52.404;5.318;2023-04-30T09:23:59;3.63;;;1.65;;
78778;SDS011;68121;52.404;5.318;2023-04-30T09:26:35;4.38;;;1.70;;
78778;SDS011;68121;52.404;5.318;2023-04-30T09:29:02;4.10;;;1.45;;
78778;SDS011;68121;52.404;5.318;2023-04-30T09:31:35;4.18;;;1.67;;
78778;SDS011;68121;52.404;5.318;2023-04-30T09:34:02;5.28;;;1.42;;
78778;SDS011;68121;52.404;5.318;2023-04-30T09:36:29;2.45;;;1.40;;
78778;SDS011;68121;52.404;5.318;2023-04-30T09:39:03;4.35;;;1.83;;
78778;SDS011;68121;52.404;5.318;2023-04-30T09:41:31;3.00;;;1.58;;
78778;SDS011;68121;52.404;5.318;2023-04-30T09:43:57;3.00;;;1.80;;
78778;SDS011;68121;52.404;5.318;2023-04-30T09:46:30;3.67;;;1.67;;
78778;SDS011;68121;52.404;5.318;2023-04-30T09:48:58;4.88;;;1.80;;
78778;SDS011;68121;52.404;5.318;2023-04-30T09:51:26;5.57;;;1.92;;
78778;SDS011;68121;52.404;5.318;2023-04-30T09:53:53;6.35;;;2.50;;
78778;SDS011;68121;52.404;5.318;2023-04-30T09:56:21;4.50;;;2.30;;
78778;SDS011;68121;52.404;5.318;2023-04-30T09:58:50;3.53;;;1.65;;
78778;SDS011;68121;52.404;5.318;2023-04-30T10:01:18;7.65;;;2.00;;
78778;SDS011;68121;52.404;5.318;2023-04-30T10:03:50;3.55;;;2.00;;
78778;SDS011;68121;52.404;5.318;2023-04-30T10:06:16;7.53;;;2.40;;
78778;SDS011;68121;52.404;5.318;2023-04-30T10:08:46;3.95;;;2.08;;
78778;SDS011;68121;52.404;5.318;2023-04-30T10:11:17;5.03;;;2.45;;
78778;SDS011;68121;52.404;5.318;2023-04-30T10:13:49;5.22;;;1.92;;
78778;SDS011;68121;52.404;5.318;2023-04-30T10:16:23;5.45;;;1.88;;
78778;SDS011;68121;52.404;5.318;2023-04-30T10:19:15;3.92;;;1.88;;
78778;SDS011;68121;52.404;5.318;2023-04-30T10:21:45;3.97;;;2.10;;
78778;SDS011;68121;52.404;5.318;2023-04-30T10:24:12;6.03;;;2.20;;
78778;SDS011;68121;52.404;5.318;2023-04-30T10:26:39;2.58;;;1.92;;
78778;SDS011;68121;52.404;5.318;2023-04-30T10:29:06;4.80;;;2.35;;
78778;SDS011;68121;52.404;5.318;2023-04-30T10:31:33;5.25;;;2.58;;
78778;SDS011;68121;52.404;5.318;2023-04-30T10:36:58;2.80;;;1.85;;
78778;SDS011;68121;52.404;5.318;2023-04-30T10:39:29;4.38;;;2.08;;
78778;SDS011;68121;52.404;5.318;2023-04-30T10:42:02;6.35;;;2.20;;
78778;SDS011;68121;52.404;5.318;2023-04-30T10:44:33;3.20;;;1.52;;
78778;SDS011;68121;52.404;5.318;2023-04-30T10:47:01;3.92;;;2.50;;
78778;SDS011;68121;52.404;5.318;2023-04-30T10:49:29;5.93;;;2.20;;
78778;SDS011;68121;52.404;5.318;2023-04-30T10:52:00;4.22;;;1.95;;
78778;SDS011;68121;52.404;5.318;2023-04-30T10:54:32;3.80;;;2.10;;
78778;SDS011;68121;52.404;5.318;2023-04-30T10:57:13;4.07;;;1.77;;
78778;SDS011;68121;52.404;5.318;2023-04-30T10:59:44;4.95;;;2.10;;
78778;SDS011;68121;52.404;5.318;2023-04-30T11:02:37;4.72;;;2.13;;
78778;SDS011;68121;52.404;5.318;2023-04-30T11:05:12;3.25;;;2.03;;
78778;SDS011;68121;52.404;5.318;2023-04-30T11:10:15;4.05;;;1.88;;
78778;SDS011;68121;52.404;5.318;2023-04-30T11:12:49;4.13;;;2.25;;
78778;SDS011;68121;52.404;5.318;2023-04-30T11:15:17;3.80;;;2.30;;
78778;SDS011;68121;52.404;5.318;2023-04-30T11:17:45;4.85;;;1.90;;
78778;SDS011;68121;52.404;5.318;2023-04-30T11:20:15;2.45;;;1.58;;
78778;SDS011;68121;52.404;5.318;2023-04-30T11:22:44;2.95;;;1.63;;
78778;SDS011;68121;52.404;5.318;2023-04-30T11:25:11;3.85;;;1.85;;
78778;SDS011;68121;52.404;5.318;2023-04-30T11:27:43;4.00;;;1.90;;
78778;SDS011;68121;52.404;5.318;2023-04-30T11:30:14;4.05;;;1.98;;
78778;SDS011;68121;52.404;5.318;2023-04-30T11:32:45;3.13;;;1.70;;
78778;SDS011;68121;52.404;5.318;2023-04-30T11:35:12;2.63;;;1.50;;
78778;SDS011;68121;52.404;5.318;2023-04-30T11:37:42;3.72;;;1.65;;
78778;SDS011;68121;52.404;5.318;2023-04-30T11:40:10;7.53;;;2.20;;
78778;SDS011;68121;52.404;5.318;2023-04-30T11:42:38;2.22;;;1.55;;
78778;SDS011;68121;52.404;5.318;2023-04-30T11:45:07;2.90;;;1.60;;
78778;SDS011;68121;52.404;5.318;2023-04-30T11:47:47;2.97;;;1.67;;
78778;SDS011;68121;52.404;5.318;2023-04-30T11:50:18;4.03;;;1.90;;
78778;SDS011;68121;52.404;5.318;2023-04-30T11:52:51;4.32;;;1.52;;
78778;SDS011;68121;52.404;5.318;2023-04-30T11:55:19;2.67;;;1.73;;
78778;SDS011;68121;52.404;5.318;2023-04-30T11:57:47;4.10;;;1.67;;
78778;SDS011;68121;52.404;5.318;2023-04-30T12:02:42;2.85;;;2.30;;
78778;SDS011;68121;52.404;5.318;2023-04-30T12:05:17;3.67;;;1.48;;
78778;SDS011;68121;52.404;5.318;2023-04-30T12:07:45;3.47;;;1.50;;
78778;SDS011;68121;52.404;5.318;2023-04-30T12:10:12;3.08;;;1.65;;
78778;SDS011;68121;52.404;5.318;2023-04-30T12:12:38;3.00;;;1.23;;
78778;SDS011;68121;52.404;5.318;2023-04-30T12:17:45;2.50;;;1.23;;
78778;SDS011;68121;52.404;5.318;2023-04-30T12:20:12;3.47;;;1.50;;
78778;SDS011;68121;52.404;5.318;2023-04-30T12:22:40;2.40;;;1.25;;
78778;SDS011;68121;52.404;5.318;2023-04-30T12:25:07;2.95;;;1.67;;
78778;SDS011;68121;52.404;5.318;2023-04-30T12:27:38;4.43;;;1.30;;
78778;SDS011;68121;52.404;5.318;2023-04-30T12:30:06;2.67;;;1.38;;
78778;SDS011;68121;52.404;5.318;2023-04-30T12:32:36;2.15;;;1.40;;
78778;SDS011;68121;52.404;5.318;2023-04-30T12:35:06;3.33;;;1.33;;
78778;SDS011;68121;52.404;5.318;2023-04-30T12:37:33;2.40;;;1.23;;
78778;SDS011;68121;52.404;5.318;2023-04-30T12:39:59;2.63;;;1.20;;
78778;SDS011;68121;52.404;5.318;2023-04-30T12:42:30;1.95;;;1.10;;
78778;SDS011;68121;52.404;5.318;2023-04-30T12:45:00;2.47;;;1.42;;
78778;SDS011;68121;52.404;5.318;2023-04-30T12:47:26;2.88;;;1.45;;
78778;SDS011;68121;52.404;5.318;2023-04-30T12:49:52;2.97;;;1.42;;
78778;SDS011;68121;52.404;5.318;2023-04-30T12:52:22;1.60;;;1.30;;
78778;SDS011;68121;52.404;5.318;2023-04-30T12:54:49;4.20;;;1.52;;
78778;SDS011;68121;52.404;5.318;2023-04-30T12:57:16;3.83;;;1.48;;
78778;SDS011;68121;52.404;5.318;2023-04-30T13:02:17;2.35;;;1.10;;
78778;SDS011;68121;52.404;5.318;2023-04-30T13:04:43;2.45;;;1.60;;
78778;SDS011;68121;52.404;5.318;2023-04-30T13:07:09;4.18;;;1.48;;
78778;SDS011;68121;52.404;5.318;2023-04-30T13:09:36;2.60;;;1.27;;
78778;SDS011;68121;52.404;5.318;2023-04-30T13:12:06;2.30;;;1.30;;
78778;SDS011;68121;52.404;5.318;2023-04-30T13:14:33;3.92;;;1.50;;
78778;SDS011;68121;52.404;5.318;2023-04-30T13:17:00;2.80;;;1.50;;
78778;SDS011;68121;52.404;5.318;2023-04-30T13:19:29;2.25;;;1.05;;
78778;SDS011;68121;52.404;5.318;2023-04-30T13:21:55;3.22;;;1.20;;
78778;SDS011;68121;52.404;5.318;2023-04-30T13:24:22;1.60;;;1.10;;
78778;SDS011;68121;52.404;5.318;2023-04-30T13:26:48;1.85;;;1.02;;
78778;SDS011;68121;52.404;5.318;2023-04-30T13:29:14;1.88;;;1.00;;
78778;SDS011;68121;52.404;5.318;2023-04-30T13:31:40;2.58;;;1.00;;
78778;SDS011;68121;52.404;5.318;2023-04-30T13:34:09;3.42;;;0.98;;
78778;SDS011;68121;52.404;5.318;2023-04-30T13:36:35;6.65;;;1.13;;
78778;SDS011;68121;52.404;5.318;2023-04-30T13:39:01;2.38;;;1.15;;
78778;SDS011;68121;52.404;5.318;2023-04-30T13:41:28;1.58;;;0.88;;
78778;SDS011;68121;52.404;5.318;2023-04-30T13:43:54;3.40;;;1.40;;
78778;SDS011;68121;52.404;5.318;2023-04-30T13:46:20;3.33;;;1.15;;
78778;SDS011;68121;52.404;5.318;2023-04-30T13:48:48;2.72;;;0.95;;
78778;SDS011;68121;52.404;5.318;2023-04-30T13:51:16;2.78;;;1.00;;
78778;SDS011;68121;52.404;5.318;2023-04-30T13:53:42;3.03;;;1.13;;
78778;SDS011;68121;52.404;5.318;2023-04-30T13:56:08;2.72;;;1.00;;
78778;SDS011;68121;52.404;5.318;2023-04-30T13:58:34;2.67;;;1.10;;
78778;SDS011;68121;52.404;5.318;2023-04-30T14:01:01;2.08;;;0.80;;
78778;SDS011;68121;52.404;5.318;2023-04-30T14:03:27;4.50;;;1.00;;
78778;SDS011;68121;52.404;5.318;2023-04-30T14:05:53;2.30;;;1.00;;
78778;SDS011;68121;52.404;5.318;2023-04-30T14:08:19;3.17;;;1.08;;
78778;SDS011;68121;52.404;5.318;2023-04-30T14:10:45;1.30;;;0.90;;
78778;SDS011;68121;52.404;5.318;2023-04-30T14:13:11;5.80;;;1.20;;
78778;SDS011;68121;52.404;5.318;2023-04-30T14:15:38;2.25;;;0.70;;
78778;SDS011;68121;52.404;5.318;2023-04-30T14:18:04;1.92;;;0.93;;
78778;SDS011;68121;52.404;5.318;2023-04-30T14:20:30;2.28;;;1.20;;
78778;SDS011;68121;52.404;5.318;2023-04-30T14:22:56;5.18;;;1.50;;
78778;SDS011;68121;52.404;5.318;2023-04-30T14:25:22;2.67;;;0.90;;
78778;SDS011;68121;52.404;5.318;2023-04-30T14:27:48;1.92;;;1.08;;
78778;SDS011;68121;52.404;5.318;2023-04-30T14:30:14;1.73;;;0.68;;
78778;SDS011;68121;52.404;5.318;2023-04-30T14:32:40;1.98;;;0.73;;
78778;SDS011;68121;52.404;5.318;2023-04-30T14:35:06;3.17;;;0.70;;
78778;SDS011;68121;52.404;5.318;2023-04-30T14:37:34;1.98;;;0.88;;
78778;SDS011;68121;52.404;5.318;2023-04-30T14:40:00;1.20;;;0.70;;
78778;SDS011;68121;52.404;5.318;2023-04-30T14:42:26;2.38;;;0.65;;
78778;SDS011;68121;52.404;5.318;2023-04-30T14:44:52;1.92;;;0.85;;
78778;SDS011;68121;52.404;5.318;2023-04-30T14:47:18;1.60;;;0.60;;
78778;SDS011;68121;52.404;5.318;2023-04-30T14:49:45;3.42;;;0.88;;
78778;SDS011;68121;52.404;5.318;2023-04-30T14:52:12;3.05;;;0.90;;
78778;SDS011;68121;52.404;5.318;2023-04-30T14:54:38;3.35;;;0.90;;
78778;SDS011;68121;52.404;5.318;2023-04-30T14:57:05;3.08;;;0.88;;
78778;SDS011;68121;52.404;5.318;2023-04-30T14:59:31;1.98;;;1.20;;
78778;SDS011;68121;52.404;5.318;2023-04-30T15:01:59;3.92;;;1.55;;
78778;SDS011;68121;52.404;5.318;2023-04-30T15:04:25;3.55;;;0.73;;
78778;SDS011;68121;52.404;5.318;2023-04-30T15:06:51;2.65;;;1.02;;
78778;SDS011;68121;52.404;5.318;2023-04-30T15:09:18;1.60;;;0.85;;
78778;SDS011;68121;52.404;5.318;2023-04-30T15:11:44;1.75;;;0.50;;
78778;SDS011;68121;52.404;5.318;2023-04-30T15:14:10;1.42;;;0.70;;
78778;SDS011;68121;52.404;5.318;2023-04-30T15:16:36;1.90;;;0.68;;